createdAt,value
2023-03-03T00:01:09.484Z,97499.44
2023-03-03T00:03:36.089Z,97502.88
2023-03-03T00:06:02.666Z,97503.88
2023-03-03T00:08:29.272Z,97505.88
2023-03-03T00:10:55.872Z,97501.25
2023-03-03T00:13:22.450Z,97503.53
2023-03-03T00:15:49.079Z,97496.66
2023-03-03T00:18:15.651Z,97495.81
2023-03-03T00:20:42.235Z,97492.38
2023-03-03T00:23:08.788Z,97492.94
2023-03-03T00:25:35.387Z,97487.13
2023-03-03T00:28:02.022Z,97491.28
2023-03-03T00:30:28.589Z,97484.78
2023-03-03T00:32:55.208Z,97483.22
2023-03-03T00:35:21.757Z,97484.13
2023-03-03T00:37:48.393Z,97486.66
2023-03-03T00:40:14.965Z,97479.94
2023-03-03T00:42:41.590Z,97487.75
2023-03-03T00:45:08.173Z,97489.22
2023-03-03T00:47:34.903Z,97481.41
2023-03-03T00:50:01.502Z,97482.50
2023-03-03T00:52:28.195Z,97478.50
2023-03-03T00:54:54.747Z,97468.13
2023-03-03T00:57:21.343Z,97470.09
2023-03-03T00:59:47.961Z,97468.13
2023-03-03T01:02:14.624Z,97459.59
2023-03-03T01:04:41.198Z,97462.13
2023-03-03T01:07:07.809Z,97457.06
2023-03-03T01:09:34.516Z,97455.22
2023-03-03T01:12:03.430Z,97455.22
2023-03-03T01:14:30.014Z,97450.41
2023-03-03T01:16:56.605Z,97450.41
2023-03-03T01:19:23.411Z,97446.63
2023-03-03T01:21:49.992Z,97445.00
2023-03-03T01:24:16.599Z,97449.16
2023-03-03T01:26:43.225Z,97442.75
2023-03-03T01:29:09.847Z,97446.19
2023-03-03T01:31:36.542Z,97441.75
2023-03-03T01:34:03.265Z,97437.50
2023-03-03T01:36:29.867Z,97432.69
2023-03-03T01:38:56.459Z,97435.31
2023-03-03T01:41:23.111Z,97439.03
2023-03-03T01:43:49.691Z,97441.00
2023-03-03T01:46:16.275Z,97442.75
2023-03-03T01:48:43.061Z,97437.78
2023-03-03T01:51:09.663Z,97438.59
2023-03-03T01:53:36.263Z,97427.88
2023-03-03T01:56:02.836Z,97430.50
2023-03-03T01:58:29.418Z,97430.69
2023-03-03T02:00:55.998Z,97423.34
2023-03-03T02:03:22.568Z,97429.88
2023-03-03T02:05:49.181Z,97430.94
2023-03-03T02:08:15.760Z,97422.81
2023-03-03T02:10:42.349Z,97419.28
2023-03-03T02:13:08.966Z,97423.34
2023-03-03T02:15:35.582Z,97423.38
2023-03-03T02:18:02.177Z,97413.81
2023-03-03T02:20:28.780Z,97421.16
2023-03-03T02:22:55.598Z,97417.63
2023-03-03T02:25:22.166Z,97418.09
2023-03-03T02:27:48.752Z,97417.09
2023-03-03T02:30:15.374Z,97411.84
2023-03-03T02:32:42.008Z,97412.19
2023-03-03T02:35:08.591Z,97413.38
2023-03-03T02:37:35.176Z,97407.75
2023-03-03T02:40:01.761Z,97408.31
2023-03-03T02:42:28.327Z,97408.66
2023-03-03T02:44:54.923Z,97401.25
2023-03-03T02:47:21.509Z,97400.66
2023-03-03T02:49:48.170Z,97398.28
2023-03-03T02:52:14.859Z,97399.03
2023-03-03T02:54:41.513Z,97393.88
2023-03-03T02:57:08.440Z,97393.63
2023-03-03T02:59:35.197Z,97405.00
2023-03-03T03:02:01.827Z,97389.19
2023-03-03T03:04:28.467Z,97391.31
2023-03-03T03:06:55.104Z,97390.59
2023-03-03T03:09:21.662Z,97388.59
2023-03-03T03:11:48.229Z,97386.69
2023-03-03T03:14:14.816Z,97381.22
2023-03-03T03:16:41.514Z,97382.13
2023-03-03T03:19:08.167Z,97381.59
2023-03-03T03:21:34.767Z,97382.13
2023-03-03T03:24:01.343Z,97382.19
2023-03-03T03:26:27.930Z,97388.50
2023-03-03T03:28:54.653Z,97387.50
2023-03-03T03:31:21.308Z,97385.81
2023-03-03T03:33:47.923Z,97383.09
2023-03-03T03:36:14.529Z,97386.22
2023-03-03T03:38:41.132Z,97379.19
2023-03-03T03:41:07.771Z,97382.00
2023-03-03T03:43:34.450Z,97375.38
2023-03-03T03:46:01.099Z,97367.00
2023-03-03T03:48:27.676Z,97366.44
2023-03-03T03:50:54.264Z,97371.53
2023-03-03T03:53:20.901Z,97365.63
2023-03-03T03:55:47.510Z,97369.44
2023-03-03T03:58:14.147Z,97365.72
2023-03-03T04:00:40.740Z,97358.84
2023-03-03T04:03:07.453Z,97368.69
2023-03-03T04:05:34.120Z,97367.22
2023-03-03T04:08:00.717Z,97359.91
2023-03-03T04:10:27.316Z,97359.94
2023-03-03T04:12:53.873Z,97356.94
2023-03-03T04:15:20.471Z,97363.50
2023-03-03T04:17:47.049Z,97358.09
2023-03-03T04:20:13.682Z,97356.94
2023-03-03T04:22:40.326Z,97357.09
2023-03-03T04:25:06.917Z,97353.25
2023-03-03T04:27:33.570Z,97368.88
2023-03-03T04:30:00.160Z,97361.13
2023-03-03T04:32:26.772Z,97365.50
2023-03-03T04:35:05.584Z,97366.94
2023-03-03T04:37:34.024Z,97364.25
2023-03-03T04:40:00.657Z,97360.72
2023-03-03T04:42:27.270Z,97361.06
2023-03-03T04:44:54.097Z,97370.03
2023-03-03T04:47:20.688Z,97362.31
2023-03-03T04:49:47.314Z,97368.28
2023-03-03T04:52:13.940Z,97363.31
2023-03-03T04:54:40.706Z,97365.25
2023-03-03T04:57:07.299Z,97366.19
2023-03-03T04:59:33.919Z,97362.38
2023-03-03T05:02:00.544Z,97365.34
2023-03-03T05:04:27.180Z,97369.31
2023-03-03T05:06:53.783Z,97376.88
2023-03-03T05:09:20.360Z,97370.50
2023-03-03T05:11:46.947Z,97369.06
2023-03-03T05:14:13.520Z,97372.00
2023-03-03T05:16:40.078Z,97366.41
2023-03-03T05:19:06.662Z,97374.25
2023-03-03T05:21:33.257Z,97366.06
2023-03-03T05:23:59.886Z,97369.31
2023-03-03T05:26:26.487Z,97375.38
2023-03-03T05:28:53.055Z,97370.38
2023-03-03T05:31:19.713Z,97380.47
2023-03-03T05:33:46.321Z,97378.59
2023-03-03T05:36:12.967Z,97378.19
2023-03-03T05:38:39.585Z,97385.44
2023-03-03T05:41:06.173Z,97385.78
2023-03-03T05:43:32.786Z,97388.03
2023-03-03T05:45:59.365Z,97395.00
2023-03-03T05:48:25.951Z,97393.53
2023-03-03T05:50:52.508Z,97397.72
2023-03-03T05:53:19.111Z,97401.41
2023-03-03T05:55:45.704Z,97396.25
2023-03-03T05:58:12.295Z,97398.91
2023-03-03T06:00:38.920Z,97409.50
2023-03-03T06:03:05.571Z,97405.72
2023-03-03T06:05:32.166Z,97404.50
2023-03-03T06:07:58.803Z,97409.84
2023-03-03T06:10:25.390Z,97407.38
2023-03-03T06:12:51.963Z,97415.38
2023-03-03T06:15:18.634Z,97412.41
2023-03-03T06:17:45.236Z,97419.81
2023-03-03T06:20:11.804Z,97418.47
2023-03-03T06:22:38.420Z,97417.25
2023-03-03T06:25:05.070Z,97421.03
2023-03-03T06:27:31.714Z,97421.19
2023-03-03T06:29:58.347Z,97430.06
2023-03-03T06:32:24.968Z,97437.06
2023-03-03T06:34:51.607Z,97436.22
2023-03-03T06:37:18.162Z,97430.66
2023-03-03T06:39:45.146Z,97442.47
2023-03-03T06:42:11.978Z,97441.72
2023-03-03T06:44:38.550Z,97447.16
2023-03-03T06:47:05.130Z,97448.06
2023-03-03T06:49:31.707Z,97453.47
2023-03-03T06:51:58.263Z,97456.16
2023-03-03T06:54:26.976Z,97449.50
2023-03-03T06:56:54.910Z,97455.94
2023-03-03T06:59:21.515Z,97450.78
2023-03-03T07:01:48.104Z,97457.13
2023-03-03T07:04:14.747Z,97460.84
2023-03-03T07:06:41.415Z,97469.34
2023-03-03T07:09:07.989Z,97470.97
2023-03-03T07:11:34.600Z,97479.50
2023-03-03T07:14:01.183Z,97481.06
2023-03-03T07:16:27.858Z,97486.19
2023-03-03T07:18:54.465Z,97489.84
2023-03-03T07:21:21.057Z,97483.19
2023-03-03T07:23:47.665Z,97488.63
2023-03-03T07:26:14.258Z,97488.19
2023-03-03T07:28:40.823Z,97492.56
2023-03-03T07:31:07.521Z,97492.41
2023-03-03T07:33:34.157Z,97495.16
2023-03-03T07:36:00.844Z,97494.97
2023-03-03T07:38:27.429Z,97494.25
2023-03-03T07:40:54.128Z,97487.44
2023-03-03T07:43:20.697Z,97482.13
2023-03-03T07:45:47.436Z,97486.38
2023-03-03T07:48:14.138Z,97487.53
2023-03-03T07:50:40.765Z,97486.94
2023-03-03T07:53:07.346Z,97486.69
2023-03-03T07:55:33.925Z,97479.47
2023-03-03T07:58:00.662Z,97479.13
2023-03-03T08:00:27.241Z,97484.84
2023-03-03T08:02:53.880Z,97489.78
2023-03-03T08:05:20.539Z,97488.81
2023-03-03T08:07:47.267Z,97492.41
2023-03-03T08:10:13.870Z,97481.22
2023-03-03T08:12:40.425Z,97486.38
2023-03-03T08:15:07.029Z,97485.91
2023-03-03T08:17:33.844Z,97477.53
2023-03-03T08:20:00.435Z,97480.16
2023-03-03T08:22:27.354Z,97486.47
2023-03-03T08:24:53.933Z,97482.63
2023-03-03T08:27:20.592Z,97486.50
2023-03-03T08:29:48.543Z,97482.09
2023-03-03T08:32:15.386Z,97493.50
2023-03-03T08:34:42.047Z,97492.13
2023-03-03T08:37:08.643Z,97498.72
2023-03-03T08:39:35.255Z,97496.41
2023-03-03T08:42:01.850Z,97493.84
2023-03-03T08:44:28.587Z,97495.06
2023-03-03T08:46:55.163Z,97501.16
2023-03-03T08:49:21.792Z,97499.47
2023-03-03T08:51:48.379Z,97507.56
2023-03-03T08:54:14.997Z,97501.13
2023-03-03T08:56:41.588Z,97496.22
2023-03-03T08:59:08.169Z,97495.84
2023-03-03T09:01:34.860Z,97495.94
2023-03-03T09:04:03.356Z,97501.31
2023-03-03T09:06:29.964Z,97494.88
2023-03-03T09:08:56.616Z,97496.31
2023-03-03T09:11:23.227Z,97498.41
2023-03-03T09:13:49.855Z,97490.03
2023-03-03T09:16:16.539Z,97491.13
2023-03-03T09:18:43.225Z,97493.41
2023-03-03T09:21:09.783Z,97485.47
2023-03-03T09:23:36.370Z,97492.19
2023-03-03T09:26:03.000Z,97489.72
2023-03-03T09:28:29.617Z,97490.91
2023-03-03T09:30:56.459Z,97489.69
2023-03-03T09:33:23.384Z,97490.84
2023-03-03T09:35:49.970Z,97481.53
2023-03-03T09:38:16.800Z,97486.06
2023-03-03T09:40:43.465Z,97491.78
2023-03-03T09:43:10.061Z,97494.78
2023-03-03T09:45:36.631Z,97492.97
2023-03-03T09:48:03.248Z,97492.75
2023-03-03T09:50:31.927Z,97489.47
2023-03-03T09:52:58.498Z,97493.44
2023-03-03T09:55:25.584Z,97493.28
2023-03-03T09:58:08.283Z,97492.78
2023-03-03T10:00:36.936Z,97502.31
2023-03-03T10:03:03.569Z,97494.19
2023-03-03T10:05:30.214Z,97498.41
2023-03-03T10:07:56.818Z,97500.59
2023-03-03T10:10:23.430Z,97482.84
2023-03-03T10:12:50.555Z,97491.47
2023-03-03T10:15:17.234Z,97498.03
2023-03-03T10:17:43.839Z,97488.09
2023-03-03T10:20:10.593Z,97483.50
2023-03-03T10:22:37.171Z,97485.00
2023-03-03T10:25:03.738Z,97481.91
2023-03-03T10:27:30.318Z,97481.59
2023-03-03T10:29:56.953Z,97476.81
2023-03-03T10:32:23.760Z,97486.97
2023-03-03T10:34:50.662Z,97474.34
2023-03-03T10:37:17.232Z,97476.25
2023-03-03T10:39:43.845Z,97466.47
2023-03-03T10:42:10.423Z,97467.06
2023-03-03T10:44:36.993Z,97475.84
2023-03-03T10:47:03.590Z,97474.25
2023-03-03T10:49:30.212Z,97479.94
2023-03-03T10:51:57.023Z,97469.91
2023-03-03T10:54:23.598Z,97462.53
2023-03-03T10:56:53.410Z,97458.19
2023-03-03T10:59:20.420Z,97453.78
2023-03-03T11:01:47.006Z,97465.94
2023-03-03T11:04:15.778Z,97457.56
2023-03-03T11:06:42.661Z,97460.50
2023-03-03T11:09:09.293Z,97459.94
2023-03-03T11:11:35.837Z,97458.91
2023-03-03T11:14:02.421Z,97455.22
2023-03-03T11:16:29.247Z,97453.78
2023-03-03T11:18:58.871Z,97448.69
2023-03-03T11:21:27.088Z,97451.91
2023-03-03T11:23:53.670Z,97444.53
2023-03-03T11:26:20.313Z,97445.19
2023-03-03T11:28:46.895Z,97439.50
2023-03-03T11:31:13.534Z,97441.44
2023-03-03T11:33:40.143Z,97433.94
2023-03-03T11:36:06.718Z,97435.63
2023-03-03T11:38:33.326Z,97427.84
2023-03-03T11:41:00.084Z,97419.22
2023-03-03T11:43:36.612Z,97423.47
2023-03-03T11:46:03.846Z,97433.69
2023-03-03T11:48:30.559Z,97426.25
2023-03-03T11:50:57.127Z,97422.69
2023-03-03T11:53:23.761Z,97426.78
2023-03-03T11:55:50.397Z,97417.53
2023-03-03T11:58:16.960Z,97421.16
2023-03-03T12:00:43.550Z,97418.25
2023-03-03T12:03:10.101Z,97414.81
2023-03-03T12:05:36.847Z,97411.28
2023-03-03T12:08:03.496Z,97407.44
2023-03-03T12:10:30.152Z,97408.16
2023-03-03T12:12:56.731Z,97403.66
2023-03-03T12:15:23.336Z,97408.38
2023-03-03T12:17:50.766Z,97407.22
2023-03-03T12:20:17.408Z,97399.09
2023-03-03T12:22:44.287Z,97401.63
2023-03-03T12:25:11.607Z,97408.63
2023-03-03T12:27:38.188Z,97406.47
2023-03-03T12:30:05.486Z,97397.75
2023-03-03T12:32:32.266Z,97398.84
2023-03-03T12:34:58.887Z,97395.97
2023-03-03T12:37:25.458Z,97387.22
2023-03-03T12:39:52.352Z,97388.75
2023-03-03T12:42:18.938Z,97384.16
2023-03-03T12:44:45.544Z,97381.84
2023-03-03T12:47:12.119Z,97385.13
2023-03-03T12:49:43.409Z,97384.94
2023-03-03T12:52:11.797Z,97381.53
2023-03-03T12:54:38.387Z,97388.34
2023-03-03T12:57:05.054Z,97386.69
2023-03-03T12:59:31.602Z,97395.44
2023-03-03T13:01:58.330Z,97389.59
2023-03-03T13:04:24.909Z,97391.16
2023-03-03T13:06:51.531Z,97385.34
2023-03-03T13:09:18.164Z,97384.41
2023-03-03T13:11:44.745Z,97385.84
2023-03-03T13:14:11.332Z,97379.31
2023-03-03T13:16:41.429Z,97383.28
2023-03-03T13:19:09.869Z,97370.59
2023-03-03T13:21:36.507Z,97384.25
2023-03-03T13:24:03.706Z,97389.31
2023-03-03T13:26:31.880Z,97386.91
2023-03-03T13:28:58.697Z,97379.16
2023-03-03T13:31:25.313Z,97369.41
2023-03-03T13:33:51.963Z,97376.00
2023-03-03T13:36:18.535Z,97375.69
2023-03-03T13:38:45.177Z,97380.88
2023-03-03T13:41:11.794Z,97380.34
2023-03-03T13:43:38.400Z,97377.78
2023-03-03T13:46:05.017Z,97373.53
2023-03-03T13:48:31.688Z,97376.38
2023-03-03T13:50:58.248Z,97378.09
2023-03-03T13:53:24.830Z,97375.66
2023-03-03T13:55:51.467Z,97365.84
2023-03-03T13:58:21.306Z,97371.91
2023-03-03T14:00:48.188Z,97365.78
2023-03-03T14:03:14.779Z,97363.59
2023-03-03T14:05:41.375Z,97362.00
2023-03-03T14:08:08.073Z,97359.19
2023-03-03T14:10:34.633Z,97357.06
2023-03-03T14:13:01.245Z,97356.88
2023-03-03T14:15:28.539Z,97349.28
2023-03-03T14:17:55.148Z,97353.38
2023-03-03T14:20:21.767Z,97350.97
2023-03-03T14:22:48.348Z,97349.81
2023-03-03T14:25:14.939Z,97348.13
2023-03-03T14:27:41.596Z,97349.34
2023-03-03T14:30:08.163Z,97343.81
2023-03-03T14:32:45.126Z,97345.16
2023-03-03T14:35:12.576Z,97358.00
2023-03-03T14:37:39.450Z,97345.59
2023-03-03T14:40:06.024Z,97346.09
2023-03-03T14:42:32.811Z,97349.50
2023-03-03T14:44:59.462Z,97347.53
2023-03-03T14:47:26.047Z,97349.25
2023-03-03T14:49:52.646Z,97343.13
2023-03-03T14:52:19.211Z,97339.88
2023-03-03T14:54:45.807Z,97336.31
2023-03-03T14:57:12.395Z,97341.81
2023-03-03T14:59:39.026Z,97340.47
2023-03-03T15:02:05.627Z,97343.00
2023-03-03T15:04:32.288Z,97346.34
2023-03-03T15:06:58.947Z,97328.56
2023-03-03T15:09:25.562Z,97339.19
2023-03-03T15:11:52.260Z,97332.50
2023-03-03T15:14:18.886Z,97332.41
2023-03-03T15:16:45.484Z,97335.88
2023-03-03T15:19:12.082Z,97330.72
2023-03-03T15:21:38.635Z,97328.88
2023-03-03T15:24:05.242Z,97332.91
2023-03-03T15:26:31.885Z,97331.16
2023-03-03T15:28:58.554Z,97331.84
2023-03-03T15:31:25.246Z,97328.50
2023-03-03T15:33:51.857Z,97338.69
2023-03-03T15:36:18.422Z,97329.88
2023-03-03T15:38:45.027Z,97335.75
2023-03-03T15:41:11.777Z,97331.00
2023-03-03T15:43:38.414Z,97332.69
2023-03-03T15:46:05.063Z,97338.94
2023-03-03T15:48:31.712Z,97337.38
2023-03-03T15:50:58.283Z,97330.31
2023-03-03T15:53:24.948Z,97335.03
2023-03-03T15:55:51.583Z,97339.09
2023-03-03T15:58:18.157Z,97335.38
2023-03-03T16:00:44.868Z,97344.94
2023-03-03T16:03:14.395Z,97341.91
2023-03-03T16:05:41.078Z,97349.75
2023-03-03T16:08:07.651Z,97348.09
2023-03-03T16:10:34.236Z,97345.06
2023-03-03T16:13:00.868Z,97353.53
2023-03-03T16:15:27.504Z,97352.84
2023-03-03T16:17:54.086Z,97354.34
2023-03-03T16:20:20.690Z,97362.34
2023-03-03T16:22:47.315Z,97359.97
2023-03-03T16:25:13.897Z,97358.38
2023-03-03T16:27:40.495Z,97360.06
2023-03-03T16:30:07.254Z,97366.69
2023-03-03T16:32:33.948Z,97365.19
2023-03-03T16:35:00.556Z,97370.59
2023-03-03T16:37:27.223Z,97377.59
2023-03-03T16:39:53.790Z,97379.13
2023-03-03T16:42:20.416Z,97373.28
2023-03-03T16:44:47.057Z,97381.88
2023-03-03T16:47:13.732Z,97379.03
2023-03-03T16:49:40.327Z,97381.38
2023-03-03T16:52:06.903Z,97395.47
2023-03-03T16:54:33.487Z,97397.31
2023-03-03T16:57:00.110Z,97396.19
2023-03-03T16:59:26.718Z,97400.06
2023-03-03T17:01:53.310Z,97406.00
2023-03-03T17:04:19.872Z,97409.78
2023-03-03T17:06:46.505Z,97422.59
2023-03-03T17:09:20.442Z,97415.91
2023-03-03T17:11:56.855Z,97423.41
2023-03-03T17:14:23.425Z,97428.50
2023-03-03T17:16:52.674Z,97424.84
2023-03-03T17:19:20.094Z,97431.38
2023-03-03T17:21:46.708Z,97433.84
2023-03-03T17:24:13.276Z,97427.97
2023-03-03T17:26:39.924Z,97441.34
2023-03-03T17:29:06.522Z,97443.59
2023-03-03T17:31:33.186Z,97440.97
2023-03-03T17:33:59.747Z,97450.72
2023-03-03T17:36:26.364Z,97448.88
2023-03-03T17:38:52.923Z,97453.53
2023-03-03T17:41:19.531Z,97461.25
2023-03-03T17:43:46.112Z,97458.81
2023-03-03T17:46:12.740Z,97462.28
2023-03-03T17:48:39.372Z,97463.47
2023-03-03T17:51:05.994Z,97463.00
2023-03-03T17:53:32.589Z,97468.84
2023-03-03T17:55:59.176Z,97469.66
2023-03-03T17:58:25.743Z,97472.91
2023-03-03T18:00:52.361Z,97475.97
2023-03-03T18:03:18.965Z,97475.97
2023-03-03T18:05:46.038Z,97477.16
2023-03-03T18:08:12.603Z,97479.97
2023-03-03T18:10:39.841Z,97492.75
2023-03-03T18:13:07.525Z,97496.75
2023-03-03T18:15:34.165Z,97486.56
2023-03-03T18:18:00.972Z,97489.94
2023-03-03T18:20:27.577Z,97495.84
2023-03-03T18:22:54.153Z,97490.03
2023-03-03T18:25:20.925Z,97494.00
2023-03-03T18:27:47.546Z,97495.19
2023-03-03T18:30:14.139Z,97496.63
2023-03-03T18:32:40.724Z,97511.44
2023-03-03T18:35:07.317Z,97504.34
2023-03-03T18:40:17.842Z,97521.00
2023-03-03T18:42:44.453Z,97518.16
2023-03-03T18:45:11.031Z,97515.34
2023-03-03T18:47:37.686Z,97519.34
2023-03-03T18:50:04.256Z,97523.75
2023-03-03T18:52:30.965Z,97523.38
2023-03-03T18:54:57.579Z,97526.56
2023-03-03T18:57:24.192Z,97537.44
2023-03-03T18:59:50.751Z,97547.53
2023-03-03T19:02:17.347Z,97539.31
2023-03-03T19:04:43.988Z,97549.44
2023-03-03T19:07:10.596Z,97550.38
2023-03-03T19:09:37.171Z,97553.94
2023-03-03T19:12:03.732Z,97559.56
2023-03-03T19:14:30.340Z,97555.94
2023-03-03T19:16:56.915Z,97556.81
2023-03-03T19:19:23.589Z,97548.56
2023-03-03T19:21:50.177Z,97546.25
2023-03-03T19:24:16.772Z,97553.41
2023-03-03T19:26:43.352Z,97561.63
2023-03-03T19:29:09.953Z,97565.38
2023-03-03T19:31:36.653Z,97568.44
2023-03-03T19:34:03.311Z,97573.66
2023-03-03T19:36:29.934Z,97572.78
2023-03-03T19:38:56.654Z,97573.78
2023-03-03T19:41:23.224Z,97579.50
2023-03-03T19:43:49.846Z,97571.06
2023-03-03T19:46:16.621Z,97576.25
2023-03-03T19:48:43.217Z,97574.59
2023-03-03T19:51:09.860Z,97571.16
2023-03-03T19:53:36.496Z,97570.22
2023-03-03T19:56:03.067Z,97577.47
2023-03-03T19:58:29.637Z,97577.53
2023-03-03T20:00:56.250Z,97580.97
2023-03-03T20:03:22.847Z,97586.31
2023-03-03T20:05:49.434Z,97581.59
2023-03-03T20:08:16.247Z,97586.53
2023-03-03T20:10:42.847Z,97584.19
2023-03-03T20:13:09.461Z,97588.59
2023-03-03T20:15:36.059Z,97597.50
2023-03-03T20:18:02.655Z,97588.66
2023-03-03T20:20:29.210Z,97588.16
2023-03-03T20:22:55.832Z,97585.00
2023-03-03T20:25:22.466Z,97580.25
2023-03-03T20:27:49.029Z,97584.94
2023-03-03T20:30:15.692Z,97588.03
2023-03-03T20:32:42.253Z,97585.81
2023-03-03T20:35:08.827Z,97591.81
2023-03-03T20:37:37.485Z,97591.53
2023-03-03T20:40:04.057Z,97592.44
2023-03-03T20:42:30.635Z,97590.09
2023-03-03T20:44:57.203Z,97601.50
2023-03-03T20:47:23.804Z,97595.34
2023-03-03T20:49:50.401Z,97596.63
2023-03-03T20:52:17.063Z,97598.16
2023-03-03T20:54:43.657Z,97595.59
2023-03-03T20:57:10.363Z,97598.81
2023-03-03T20:59:36.989Z,97598.56
2023-03-03T21:02:03.689Z,97597.44
2023-03-03T21:04:30.371Z,97602.41
2023-03-03T21:06:56.987Z,97605.53
2023-03-03T21:09:23.577Z,97598.00
2023-03-03T21:11:50.150Z,97602.25
2023-03-03T21:14:16.765Z,97601.28
2023-03-03T21:16:43.389Z,97601.97
2023-03-03T21:19:09.976Z,97594.09
2023-03-03T21:21:36.579Z,97597.72
2023-03-03T21:24:03.128Z,97603.13
2023-03-03T21:26:30.025Z,97609.34
2023-03-03T21:28:56.591Z,97609.22
2023-03-03T21:31:23.183Z,97613.63
2023-03-03T21:33:49.794Z,97610.00
2023-03-03T21:36:16.373Z,97611.50
2023-03-03T21:38:43.020Z,97607.88
2023-03-03T21:41:09.591Z,97622.44
2023-03-03T21:43:36.204Z,97621.47
2023-03-03T21:46:02.794Z,97621.78
2023-03-03T21:48:29.440Z,97619.16
2023-03-03T21:50:56.019Z,97614.75
2023-03-03T21:53:22.601Z,97618.97
2023-03-03T21:55:49.351Z,97614.06
2023-03-03T21:58:15.939Z,97618.63
2023-03-03T22:00:42.537Z,97617.84
2023-03-03T22:03:09.119Z,97617.50
2023-03-03T22:05:35.690Z,97611.13
2023-03-03T22:08:02.282Z,97622.28
2023-03-03T22:10:28.895Z,97618.66
2023-03-03T22:12:55.762Z,97613.28
2023-03-03T22:15:22.383Z,97618.47
2023-03-03T22:17:48.955Z,97615.03
2023-03-03T22:20:15.537Z,97610.28
2023-03-03T22:22:42.116Z,97614.06
2023-03-03T22:25:08.732Z,97612.41
2023-03-03T22:27:35.325Z,97616.31
2023-03-03T22:30:01.918Z,97620.84
2023-03-03T22:32:28.537Z,97605.69
2023-03-03T22:34:55.180Z,97612.06
2023-03-03T22:37:21.763Z,97615.78
2023-03-03T22:39:48.360Z,97616.44
2023-03-03T22:42:14.963Z,97615.44
2023-03-03T22:44:42.531Z,97617.59
2023-03-03T22:47:10.217Z,97616.63
2023-03-03T22:49:36.789Z,97620.94
2023-03-03T22:52:03.410Z,97615.13
2023-03-03T22:54:29.981Z,97626.75
2023-03-03T22:56:56.564Z,97620.34
2023-03-03T22:59:23.972Z,97615.44
2023-03-03T23:01:50.531Z,97618.63
2023-03-03T23:04:17.216Z,97617.31
2023-03-03T23:06:44.059Z,97622.50
2023-03-03T23:09:10.641Z,97614.72
2023-03-03T23:11:37.287Z,97612.56
2023-03-03T23:14:03.882Z,97616.97
2023-03-03T23:16:30.472Z,97613.91
2023-03-03T23:18:57.084Z,97608.50
2023-03-03T23:21:23.660Z,97609.06
2023-03-03T23:23:50.248Z,97607.25
2023-03-03T23:26:19.078Z,97603.56
2023-03-03T23:28:45.671Z,97604.47
2023-03-03T23:31:12.244Z,97603.34
2023-03-03T23:33:38.872Z,97607.88
2023-03-03T23:36:05.451Z,97598.44
2023-03-03T23:38:32.052Z,97601.97
2023-03-03T23:40:58.663Z,97605.31
2023-03-03T23:43:25.286Z,97603.88
2023-03-03T23:45:51.868Z,97601.59
2023-03-03T23:48:18.898Z,97602.34
2023-03-03T23:50:45.460Z,97609.50
2023-03-03T23:53:12.052Z,97607.63
2023-03-03T23:55:38.645Z,97614.34
2023-03-03T23:58:05.226Z,97614.16
